sensor_id;sensor_type;location;lat;lon;timestamp;P1;durP1;ratioP1;P2;durP2;ratioP2
52724;SDS011;38621;52.830;6.914;2022-09-12T00:01:55;2.90;;;2.50;;
52724;SDS011;38621;52.830;6.914;2022-09-12T00:04:21;3.38;;;2.78;;
52724;SDS011;38621;52.830;6.914;2022-09-12T00:06:47;2.47;;;2.28;;
52724;SDS011;38621;52.830;6.914;2022-09-12T00:09:13;2.85;;;2.63;;
52724;SDS011;38621;52.830;6.914;2022-09-12T00:11:39;2.35;;;1.95;;
52724;SDS011;38621;52.830;6.914;2022-09-12T00:14:07;2.58;;;2.03;;
52724;SDS011;38621;52.830;6.914;2022-09-12T00:16:35;2.85;;;2.00;;
52724;SDS011;38621;52.830;6.914;2022-09-12T00:19:01;2.65;;;2.20;;
52724;SDS011;38621;52.830;6.914;2022-09-12T00:21:28;22.30;;;4.78;;
52724;SDS011;38621;52.830;6.914;2022-09-12T00:23:56;3.53;;;3.15;;
52724;SDS011;38621;52.830;6.914;2022-09-12T00:26:23;5.40;;;4.20;;
52724;SDS011;38621;52.830;6.914;2022-09-12T00:28:49;3.25;;;2.95;;
52724;SDS011;38621;52.830;6.914;2022-09-12T00:31:20;2.95;;;2.13;;
52724;SDS011;38621;52.830;6.914;2022-09-12T00:33:48;2.85;;;2.30;;
52724;SDS011;38621;52.830;6.914;2022-09-12T00:36:15;2.75;;;2.22;;
52724;SDS011;38621;52.830;6.914;2022-09-12T00:38:46;3.22;;;2.50;;
52724;SDS011;38621;52.830;6.914;2022-09-12T00:41:15;3.70;;;3.15;;
52724;SDS011;38621;52.830;6.914;2022-09-12T00:43:48;3.90;;;3.33;;
52724;SDS011;38621;52.830;6.914;2022-09-12T00:48:51;4.78;;;4.05;;
52724;SDS011;38621;52.830;6.914;2022-09-12T00:51:31;5.30;;;4.00;;
52724;SDS011;38621;52.830;6.914;2022-09-12T00:54:01;4.97;;;4.00;;
52724;SDS011;38621;52.830;6.914;2022-09-12T00:56:30;4.18;;;3.78;;
52724;SDS011;38621;52.830;6.914;2022-09-12T00:58:58;5.78;;;4.95;;
52724;SDS011;38621;52.830;6.914;2022-09-12T01:01:30;7.32;;;5.95;;
52724;SDS011;38621;52.830;6.914;2022-09-12T01:03:57;4.95;;;4.30;;
52724;SDS011;38621;52.830;6.914;2022-09-12T01:06:33;2.85;;;2.47;;
52724;SDS011;38621;52.830;6.914;2022-09-12T01:09:02;4.28;;;2.92;;
52724;SDS011;38621;52.830;6.914;2022-09-12T01:11:29;4.30;;;3.25;;
52724;SDS011;38621;52.830;6.914;2022-09-12T01:14:00;5.55;;;4.78;;
52724;SDS011;38621;52.830;6.914;2022-09-12T01:16:26;5.53;;;4.50;;
52724;SDS011;38621;52.830;6.914;2022-09-12T01:36:36;11.95;;;8.57;;
52724;SDS011;38621;52.830;6.914;2022-09-12T01:38:59;7.60;;;6.55;;
52724;SDS011;38621;52.830;6.914;2022-09-12T01:44:22;6.72;;;5.63;;
52724;SDS011;38621;52.830;6.914;2022-09-12T01:54:56;10.23;;;8.30;;
52724;SDS011;38621;52.830;6.914;2022-09-12T01:57:36;10.75;;;8.70;;
52724;SDS011;38621;52.830;6.914;2022-09-12T02:00:08;12.32;;;10.10;;
52724;SDS011;38621;52.830;6.914;2022-09-12T02:02:37;14.27;;;10.38;;
52724;SDS011;38621;52.830;6.914;2022-09-12T02:05:08;13.30;;;10.27;;
52724;SDS011;38621;52.830;6.914;2022-09-12T02:07:38;11.57;;;9.73;;
52724;SDS011;38621;52.830;6.914;2022-09-12T02:12:43;13.23;;;9.75;;
52724;SDS011;38621;52.830;6.914;2022-09-12T02:15:22;14.02;;;9.65;;
52724;SDS011;38621;52.830;6.914;2022-09-12T02:17:57;13.73;;;9.75;;
52724;SDS011;38621;52.830;6.914;2022-09-12T02:20:27;13.05;;;9.93;;
52724;SDS011;38621;52.830;6.914;2022-09-12T02:22:55;10.50;;;8.60;;
52724;SDS011;38621;52.830;6.914;2022-09-12T02:25:22;11.82;;;8.68;;
52724;SDS011;38621;52.830;6.914;2022-09-12T02:30:22;8.38;;;7.18;;
52724;SDS011;38621;52.830;6.914;2022-09-12T02:32:59;11.45;;;8.98;;
52724;SDS011;38621;52.830;6.914;2022-09-12T02:38:08;10.27;;;8.00;;
52724;SDS011;38621;52.830;6.914;2022-09-12T02:40:35;10.32;;;9.05;;
52724;SDS011;38621;52.830;6.914;2022-09-12T02:43:02;10.98;;;8.18;;
52724;SDS011;38621;52.830;6.914;2022-09-12T02:45:29;10.80;;;8.40;;
52724;SDS011;38621;52.830;6.914;2022-09-12T02:48:01;10.38;;;7.85;;
52724;SDS011;38621;52.830;6.914;2022-09-12T02:50:37;10.00;;;6.50;;
52724;SDS011;38621;52.830;6.914;2022-09-12T02:53:04;7.20;;;5.78;;
52724;SDS011;38621;52.830;6.914;2022-09-12T02:55:32;6.00;;;5.03;;
52724;SDS011;38621;52.830;6.914;2022-09-12T02:58:03;5.10;;;4.50;;
52724;SDS011;38621;52.830;6.914;2022-09-12T03:00:36;5.85;;;4.65;;
52724;SDS011;38621;52.830;6.914;2022-09-12T03:16:50;7.60;;;6.10;;
52724;SDS011;38621;52.830;6.914;2022-09-12T03:27:55;10.90;;;7.00;;
52724;SDS011;38621;52.830;6.914;2022-09-12T03:30:24;8.35;;;4.90;;
52724;SDS011;38621;52.830;6.914;2022-09-12T03:32:52;4.32;;;3.78;;
52724;SDS011;38621;52.830;6.914;2022-09-12T03:35:20;4.07;;;3.58;;
52724;SDS011;38621;52.830;6.914;2022-09-12T03:37:48;4.10;;;3.40;;
52724;SDS011;38621;52.830;6.914;2022-09-12T03:40:15;4.18;;;3.30;;
52724;SDS011;38621;52.830;6.914;2022-09-12T03:42:41;4.13;;;3.05;;
52724;SDS011;38621;52.830;6.914;2022-09-12T03:45:07;3.10;;;2.80;;
52724;SDS011;38621;52.830;6.914;2022-09-12T03:47:34;3.35;;;2.75;;
52724;SDS011;38621;52.830;6.914;2022-09-12T03:50:00;3.28;;;2.97;;
52724;SDS011;38621;52.830;6.914;2022-09-12T03:52:26;3.08;;;2.78;;
52724;SDS011;38621;52.830;6.914;2022-09-12T03:54:52;5.18;;;4.20;;
52724;SDS011;38621;52.830;6.914;2022-09-12T03:57:17;5.95;;;4.68;;
52724;SDS011;38621;52.830;6.914;2022-09-12T03:59:43;5.07;;;4.32;;
52724;SDS011;38621;52.830;6.914;2022-09-12T04:02:09;5.65;;;4.82;;
52724;SDS011;38621;52.830;6.914;2022-09-12T04:04:37;7.97;;;5.38;;
52724;SDS011;38621;52.830;6.914;2022-09-12T04:07:05;8.13;;;5.45;;
52724;SDS011;38621;52.830;6.914;2022-09-12T04:09:30;6.82;;;5.85;;
52724;SDS011;38621;52.830;6.914;2022-09-12T04:11:56;7.30;;;5.88;;
52724;SDS011;38621;52.830;6.914;2022-09-12T04:14:22;8.88;;;5.80;;
52724;SDS011;38621;52.830;6.914;2022-09-12T04:16:47;7.97;;;5.40;;
52724;SDS011;38621;52.830;6.914;2022-09-12T04:19:13;6.40;;;4.85;;
52724;SDS011;38621;52.830;6.914;2022-09-12T04:21:39;8.90;;;5.47;;
52724;SDS011;38621;52.830;6.914;2022-09-12T04:24:05;9.93;;;5.82;;
52724;SDS011;38621;52.830;6.914;2022-09-12T04:26:31;21.35;;;7.07;;
52724;SDS011;38621;52.830;6.914;2022-09-12T04:28:57;44.53;;;9.70;;
52724;SDS011;38621;52.830;6.914;2022-09-12T04:31:22;55.30;;;8.93;;
52724;SDS011;38621;52.830;6.914;2022-09-12T04:33:55;32.50;;;6.80;;
52724;SDS011;38621;52.830;6.914;2022-09-12T04:36:23;10.80;;;6.20;;
52724;SDS011;38621;52.830;6.914;2022-09-12T04:38:49;32.10;;;7.18;;
52724;SDS011;38621;52.830;6.914;2022-09-12T04:41:17;29.17;;;6.95;;
52724;SDS011;38621;52.830;6.914;2022-09-12T04:43:51;9.98;;;5.82;;
52724;SDS011;38621;52.830;6.914;2022-09-12T04:46:28;8.82;;;6.38;;
52724;SDS011;38621;52.830;6.914;2022-09-12T04:48:55;8.70;;;6.32;;
52724;SDS011;38621;52.830;6.914;2022-09-12T04:51:25;8.68;;;6.47;;
52724;SDS011;38621;52.830;6.914;2022-09-12T04:53:54;8.35;;;6.70;;
52724;SDS011;38621;52.830;6.914;2022-09-12T04:56:21;9.35;;;7.78;;
52724;SDS011;38621;52.830;6.914;2022-09-12T04:58:48;8.38;;;6.68;;
52724;SDS011;38621;52.830;6.914;2022-09-12T05:01:17;9.70;;;7.35;;
52724;SDS011;38621;52.830;6.914;2022-09-12T05:03:45;8.70;;;6.95;;
52724;SDS011;38621;52.830;6.914;2022-09-12T05:06:16;13.57;;;6.32;;
52724;SDS011;38621;52.830;6.914;2022-09-12T05:08:43;7.45;;;6.30;;
52724;SDS011;38621;52.830;6.914;2022-09-12T05:11:15;8.75;;;7.18;;
52724;SDS011;38621;52.830;6.914;2022-09-12T05:13:42;9.35;;;7.60;;
52724;SDS011;38621;52.830;6.914;2022-09-12T05:16:09;8.77;;;7.03;;
52724;SDS011;38621;52.830;6.914;2022-09-12T05:18:37;8.57;;;6.72;;
52724;SDS011;38621;52.830;6.914;2022-09-12T05:21:04;8.80;;;6.60;;
52724;SDS011;38621;52.830;6.914;2022-09-12T05:23:31;9.55;;;7.30;;
52724;SDS011;38621;52.830;6.914;2022-09-12T05:25:58;10.27;;;7.70;;
52724;SDS011;38621;52.830;6.914;2022-09-12T05:28:27;11.23;;;7.80;;
52724;SDS011;38621;52.830;6.914;2022-09-12T05:31:01;15.10;;;10.98;;
52724;SDS011;38621;52.830;6.914;2022-09-12T05:33:28;15.13;;;11.00;;
52724;SDS011;38621;52.830;6.914;2022-09-12T05:35:55;16.45;;;11.20;;
52724;SDS011;38621;52.830;6.914;2022-09-12T05:38:21;20.80;;;13.98;;
52724;SDS011;38621;52.830;6.914;2022-09-12T05:40:49;21.58;;;14.88;;
52724;SDS011;38621;52.830;6.914;2022-09-12T05:43:16;19.35;;;13.48;;
52724;SDS011;38621;52.830;6.914;2022-09-12T05:45:42;21.75;;;14.45;;
52724;SDS011;38621;52.830;6.914;2022-09-12T05:48:08;22.38;;;14.95;;
52724;SDS011;38621;52.830;6.914;2022-09-12T05:50:33;22.35;;;14.40;;
52724;SDS011;38621;52.830;6.914;2022-09-12T05:52:59;25.00;;;15.57;;
52724;SDS011;38621;52.830;6.914;2022-09-12T05:55:25;22.90;;;14.90;;
52724;SDS011;38621;52.830;6.914;2022-09-12T05:57:51;20.67;;;14.45;;
52724;SDS011;38621;52.830;6.914;2022-09-12T06:00:16;19.77;;;13.23;;
52724;SDS011;38621;52.830;6.914;2022-09-12T06:02:50;23.75;;;15.50;;
52724;SDS011;38621;52.830;6.914;2022-09-12T06:05:18;23.05;;;14.65;;
52724;SDS011;38621;52.830;6.914;2022-09-12T06:07:45;24.13;;;16.05;;
52724;SDS011;38621;52.830;6.914;2022-09-12T06:10:12;21.70;;;14.13;;
52724;SDS011;38621;52.830;6.914;2022-09-12T06:12:38;23.38;;;14.88;;
52724;SDS011;38621;52.830;6.914;2022-09-12T06:15:04;20.80;;;13.60;;
52724;SDS011;38621;52.830;6.914;2022-09-12T06:17:30;22.50;;;15.13;;
52724;SDS011;38621;52.830;6.914;2022-09-12T06:19:56;25.48;;;15.35;;
52724;SDS011;38621;52.830;6.914;2022-09-12T06:22:22;22.33;;;14.82;;
52724;SDS011;38621;52.830;6.914;2022-09-12T06:24:47;23.90;;;15.07;;
52724;SDS011;38621;52.830;6.914;2022-09-12T06:27:13;23.13;;;14.93;;
52724;SDS011;38621;52.830;6.914;2022-09-12T06:29:39;23.02;;;15.30;;
52724;SDS011;38621;52.830;6.914;2022-09-12T06:32:05;23.25;;;15.27;;
52724;SDS011;38621;52.830;6.914;2022-09-12T06:34:31;22.35;;;14.48;;
52724;SDS011;38621;52.830;6.914;2022-09-12T06:36:57;21.67;;;14.82;;
52724;SDS011;38621;52.830;6.914;2022-09-12T06:39:23;23.83;;;15.90;;
52724;SDS011;38621;52.830;6.914;2022-09-12T06:41:49;24.02;;;14.80;;
52724;SDS011;38621;52.830;6.914;2022-09-12T06:44:19;22.08;;;14.07;;
52724;SDS011;38621;52.830;6.914;2022-09-12T06:46:46;22.70;;;14.15;;
52724;SDS011;38621;52.830;6.914;2022-09-12T06:49:12;20.98;;;13.90;;
52724;SDS011;38621;52.830;6.914;2022-09-12T06:51:38;21.02;;;13.85;;
52724;SDS011;38621;52.830;6.914;2022-09-12T06:54:07;21.60;;;13.50;;
52724;SDS011;38621;52.830;6.914;2022-09-12T06:56:36;21.15;;;12.73;;
52724;SDS011;38621;52.830;6.914;2022-09-12T06:59:02;18.30;;;12.02;;
52724;SDS011;38621;52.830;6.914;2022-09-12T07:01:28;19.42;;;12.43;;
52724;SDS011;38621;52.830;6.914;2022-09-12T07:03:56;17.98;;;12.90;;
52724;SDS011;38621;52.830;6.914;2022-09-12T07:06:25;17.27;;;12.10;;
52724;SDS011;38621;52.830;6.914;2022-09-12T07:08:56;18.95;;;12.77;;
52724;SDS011;38621;52.830;6.914;2022-09-12T07:11:24;19.08;;;12.43;;
52724;SDS011;38621;52.830;6.914;2022-09-12T07:13:51;18.02;;;11.50;;
52724;SDS011;38621;52.830;6.914;2022-09-12T07:16:18;18.50;;;12.52;;
52724;SDS011;38621;52.830;6.914;2022-09-12T07:18:48;15.73;;;10.90;;
52724;SDS011;38621;52.830;6.914;2022-09-12T07:21:15;17.95;;;11.85;;
52724;SDS011;38621;52.830;6.914;2022-09-12T07:23:40;16.05;;;10.88;;
52724;SDS011;38621;52.830;6.914;2022-09-12T07:26:07;14.88;;;11.45;;
52724;SDS011;38621;52.830;6.914;2022-09-12T07:28:35;15.32;;;11.00;;
52724;SDS011;38621;52.830;6.914;2022-09-12T07:31:11;14.88;;;11.02;;
52724;SDS011;38621;52.830;6.914;2022-09-12T07:33:39;14.40;;;10.82;;
52724;SDS011;38621;52.830;6.914;2022-09-12T07:36:15;15.73;;;10.38;;
52724;SDS011;38621;52.830;6.914;2022-09-12T07:38:42;15.35;;;10.35;;
52724;SDS011;38621;52.830;6.914;2022-09-12T07:41:09;12.30;;;9.65;;
52724;SDS011;38621;52.830;6.914;2022-09-12T07:43:35;13.70;;;9.13;;
52724;SDS011;38621;52.830;6.914;2022-09-12T07:46:01;13.73;;;9.93;;
52724;SDS011;38621;52.830;6.914;2022-09-12T07:48:27;11.95;;;9.40;;
52724;SDS011;38621;52.830;6.914;2022-09-12T07:50:56;11.68;;;9.32;;
52724;SDS011;38621;52.830;6.914;2022-09-12T07:53:29;13.63;;;10.05;;
52724;SDS011;38621;52.830;6.914;2022-09-12T07:55:57;11.75;;;8.82;;
52724;SDS011;38621;52.830;6.914;2022-09-12T07:58:22;13.10;;;9.93;;
52724;SDS011;38621;52.830;6.914;2022-09-12T08:00:48;11.32;;;8.50;;
52724;SDS011;38621;52.830;6.914;2022-09-12T08:03:14;11.70;;;8.45;;
52724;SDS011;38621;52.830;6.914;2022-09-12T08:05:40;12.80;;;8.48;;
52724;SDS011;38621;52.830;6.914;2022-09-12T08:08:06;11.07;;;8.48;;
52724;SDS011;38621;52.830;6.914;2022-09-12T08:10:31;11.40;;;8.65;;
52724;SDS011;38621;52.830;6.914;2022-09-12T08:12:57;10.82;;;8.13;;
52724;SDS011;38621;52.830;6.914;2022-09-12T08:15:23;9.73;;;7.50;;
52724;SDS011;38621;52.830;6.914;2022-09-12T08:17:49;10.57;;;8.57;;
52724;SDS011;38621;52.830;6.914;2022-09-12T08:20:14;10.05;;;7.57;;
52724;SDS011;38621;52.830;6.914;2022-09-12T08:22:41;9.32;;;7.72;;
52724;SDS011;38621;52.830;6.914;2022-09-12T08:25:07;11.45;;;8.07;;
52724;SDS011;38621;52.830;6.914;2022-09-12T08:27:34;11.90;;;7.57;;
52724;SDS011;38621;52.830;6.914;2022-09-12T08:29:59;10.27;;;7.25;;
52724;SDS011;38621;52.830;6.914;2022-09-12T08:32:25;9.45;;;7.25;;
52724;SDS011;38621;52.830;6.914;2022-09-12T08:34:51;9.93;;;7.30;;
52724;SDS011;38621;52.830;6.914;2022-09-12T08:37:16;11.27;;;8.10;;
52724;SDS011;38621;52.830;6.914;2022-09-12T08:39:43;9.70;;;8.25;;
52724;SDS011;38621;52.830;6.914;2022-09-12T08:42:09;10.55;;;7.38;;
52724;SDS011;38621;52.830;6.914;2022-09-12T08:47:40;11.23;;;8.20;;
52724;SDS011;38621;52.830;6.914;2022-09-12T08:52:35;12.43;;;8.50;;
52724;SDS011;38621;52.830;6.914;2022-09-12T08:57:57;12.55;;;9.60;;
52724;SDS011;38621;52.830;6.914;2022-09-12T09:00:26;11.90;;;8.88;;
52724;SDS011;38621;52.830;6.914;2022-09-12T09:05:44;13.20;;;9.35;;
52724;SDS011;38621;52.830;6.914;2022-09-12T09:08:27;15.65;;;10.30;;
52724;SDS011;38621;52.830;6.914;2022-09-12T09:14:03;14.85;;;10.45;;
52724;SDS011;38621;52.830;6.914;2022-09-12T09:17:25;15.40;;;11.43;;
52724;SDS011;38621;52.830;6.914;2022-09-12T09:20:08;15.82;;;11.07;;
52724;SDS011;38621;52.830;6.914;2022-09-12T09:30:58;17.77;;;13.18;;
52724;SDS011;38621;52.830;6.914;2022-09-12T09:33:27;19.33;;;12.95;;
52724;SDS011;38621;52.830;6.914;2022-09-12T09:39:05;19.90;;;14.50;;
52724;SDS011;38621;52.830;6.914;2022-09-12T09:44:29;20.92;;;13.75;;
52724;SDS011;38621;52.830;6.914;2022-09-12T09:46:56;21.52;;;14.85;;
52724;SDS011;38621;52.830;6.914;2022-09-12T09:49:24;20.40;;;14.23;;
52724;SDS011;38621;52.830;6.914;2022-09-12T09:51:52;19.88;;;14.38;;
52724;SDS011;38621;52.830;6.914;2022-09-12T09:54:20;19.63;;;14.18;;
52724;SDS011;38621;52.830;6.914;2022-09-12T09:56:47;20.70;;;14.57;;
52724;SDS011;38621;52.830;6.914;2022-09-12T10:04:22;22.50;;;14.50;;
52724;SDS011;38621;52.830;6.914;2022-09-12T10:06:53;20.00;;;13.85;;
52724;SDS011;38621;52.830;6.914;2022-09-12T10:09:25;18.73;;;12.90;;
52724;SDS011;38621;52.830;6.914;2022-09-12T10:11:53;20.17;;;14.10;;
52724;SDS011;38621;52.830;6.914;2022-09-12T10:16:55;18.33;;;12.80;;
52724;SDS011;38621;52.830;6.914;2022-09-12T10:19:23;17.05;;;12.02;;
52724;SDS011;38621;52.830;6.914;2022-09-12T10:22:01;19.05;;;12.90;;
52724;SDS011;38621;52.830;6.914;2022-09-12T10:24:41;21.80;;;13.55;;
52724;SDS011;38621;52.830;6.914;2022-09-12T10:29:58;16.25;;;12.27;;
52724;SDS011;38621;52.830;6.914;2022-09-12T10:32:35;17.73;;;12.43;;
52724;SDS011;38621;52.830;6.914;2022-09-12T10:35:05;18.92;;;12.80;;
52724;SDS011;38621;52.830;6.914;2022-09-12T10:37:39;18.55;;;12.65;;
52724;SDS011;38621;52.830;6.914;2022-09-12T10:40:28;16.08;;;11.18;;
52724;SDS011;38621;52.830;6.914;2022-09-12T10:42:58;15.38;;;11.30;;
52724;SDS011;38621;52.830;6.914;2022-09-12T10:45:28;14.45;;;10.90;;
52724;SDS011;38621;52.830;6.914;2022-09-12T10:48:24;16.13;;;11.52;;
52724;SDS011;38621;52.830;6.914;2022-09-12T10:50:53;17.08;;;12.10;;
52724;SDS011;38621;52.830;6.914;2022-09-12T10:53:23;18.52;;;13.13;;
52724;SDS011;38621;52.830;6.914;2022-09-12T11:14:51;12.27;;;8.93;;
52724;SDS011;38621;52.830;6.914;2022-09-12T11:22:59;13.00;;;9.43;;
52724;SDS011;38621;52.830;6.914;2022-09-12T11:30:45;11.40;;;8.73;;
52724;SDS011;38621;52.830;6.914;2022-09-12T11:33:42;13.20;;;9.40;;
52724;SDS011;38621;52.830;6.914;2022-09-12T11:36:15;11.90;;;8.88;;
52724;SDS011;38621;52.830;6.914;2022-09-12T11:41:27;13.75;;;9.18;;
52724;SDS011;38621;52.830;6.914;2022-09-12T11:44:20;11.93;;;8.73;;
52724;SDS011;38621;52.830;6.914;2022-09-12T11:46:47;14.18;;;8.93;;
52724;SDS011;38621;52.830;6.914;2022-09-12T11:49:25;12.27;;;8.23;;
52724;SDS011;38621;52.830;6.914;2022-09-12T11:54:41;11.32;;;8.73;;
52724;SDS011;38621;52.830;6.914;2022-09-12T11:57:29;11.82;;;8.55;;
52724;SDS011;38621;52.830;6.914;2022-09-12T12:00:01;10.02;;;7.38;;
52724;SDS011;38621;52.830;6.914;2022-09-12T12:07:58;11.02;;;7.22;;
52724;SDS011;38621;52.830;6.914;2022-09-12T12:10:29;12.15;;;8.45;;
52724;SDS011;38621;52.830;6.914;2022-09-12T12:13:05;9.73;;;7.05;;
52724;SDS011;38621;52.830;6.914;2022-09-12T12:15:39;7.43;;;5.95;;
52724;SDS011;38621;52.830;6.914;2022-09-12T12:20:49;8.70;;;5.65;;
52724;SDS011;38621;52.830;6.914;2022-09-12T12:23:25;7.47;;;5.10;;
52724;SDS011;38621;52.830;6.914;2022-09-12T12:25:53;7.45;;;5.47;;
52724;SDS011;38621;52.830;6.914;2022-09-12T12:31:08;8.90;;;7.03;;
52724;SDS011;38621;52.830;6.914;2022-09-12T12:36:04;7.95;;;6.35;;
52724;SDS011;38621;52.830;6.914;2022-09-12T12:38:34;7.70;;;5.40;;
52724;SDS011;38621;52.830;6.914;2022-09-12T12:43:49;7.60;;;5.70;;
52724;SDS011;38621;52.830;6.914;2022-09-12T12:46:17;8.77;;;6.68;;
52724;SDS011;38621;52.830;6.914;2022-09-12T12:48:51;8.45;;;5.88;;
52724;SDS011;38621;52.830;6.914;2022-09-12T12:51:36;8.15;;;5.82;;
52724;SDS011;38621;52.830;6.914;2022-09-12T12:59:54;6.70;;;5.13;;
52724;SDS011;38621;52.830;6.914;2022-09-12T13:04:55;6.85;;;4.90;;
52724;SDS011;38621;52.830;6.914;2022-09-12T13:07:29;6.72;;;4.65;;
52724;SDS011;38621;52.830;6.914;2022-09-12T13:14:55;5.72;;;4.53;;
52724;SDS011;38621;52.830;6.914;2022-09-12T13:17:24;6.28;;;4.57;;
52724;SDS011;38621;52.830;6.914;2022-09-12T13:20:17;6.47;;;4.65;;
52724;SDS011;38621;52.830;6.914;2022-09-12T13:22:48;7.22;;;5.30;;
52724;SDS011;38621;52.830;6.914;2022-09-12T13:28:05;6.20;;;4.32;;
52724;SDS011;38621;52.830;6.914;2022-09-12T13:30:38;4.68;;;3.80;;
52724;SDS011;38621;52.830;6.914;2022-09-12T13:38:02;6.70;;;5.28;;
52724;SDS011;38621;52.830;6.914;2022-09-12T13:43:47;6.28;;;4.72;;
52724;SDS011;38621;52.830;6.914;2022-09-12T13:46:19;5.90;;;4.50;;
52724;SDS011;38621;52.830;6.914;2022-09-12T13:48:54;5.82;;;4.50;;
52724;SDS011;38621;52.830;6.914;2022-09-12T13:51:22;6.18;;;4.15;;
52724;SDS011;38621;52.830;6.914;2022-09-12T13:53:51;6.63;;;4.70;;
52724;SDS011;38621;52.830;6.914;2022-09-12T13:56:20;5.65;;;3.70;;
52724;SDS011;38621;52.830;6.914;2022-09-12T13:58:50;4.97;;;3.80;;
52724;SDS011;38621;52.830;6.914;2022-09-12T14:01:18;4.80;;;3.83;;
52724;SDS011;38621;52.830;6.914;2022-09-12T14:06:34;4.75;;;3.50;;
52724;SDS011;38621;52.830;6.914;2022-09-12T14:09:15;4.78;;;4.05;;
52724;SDS011;38621;52.830;6.914;2022-09-12T14:11:48;5.60;;;4.32;;
52724;SDS011;38621;52.830;6.914;2022-09-12T14:14:26;6.32;;;4.20;;
52724;SDS011;38621;52.830;6.914;2022-09-12T14:17:00;5.68;;;4.32;;
52724;SDS011;38621;52.830;6.914;2022-09-12T14:19:39;4.25;;;3.45;;
52724;SDS011;38621;52.830;6.914;2022-09-12T14:22:08;5.10;;;3.85;;
52724;SDS011;38621;52.830;6.914;2022-09-12T14:24:42;4.50;;;3.50;;
52724;SDS011;38621;52.830;6.914;2022-09-12T14:27:16;6.05;;;3.70;;
52724;SDS011;38621;52.830;6.914;2022-09-12T14:29:47;5.47;;;3.60;;
52724;SDS011;38621;52.830;6.914;2022-09-12T14:32:21;5.75;;;4.10;;
52724;SDS011;38621;52.830;6.914;2022-09-12T14:37:49;4.82;;;3.83;;
52724;SDS011;38621;52.830;6.914;2022-09-12T14:40:19;5.13;;;3.47;;
52724;SDS011;38621;52.830;6.914;2022-09-12T14:42:47;3.90;;;2.95;;
52724;SDS011;38621;52.830;6.914;2022-09-12T14:45:26;4.18;;;2.95;;
52724;SDS011;38621;52.830;6.914;2022-09-12T14:47:55;4.00;;;3.03;;
52724;SDS011;38621;52.830;6.914;2022-09-12T14:50:23;4.78;;;3.53;;
52724;SDS011;38621;52.830;6.914;2022-09-12T14:53:01;3.67;;;3.10;;
52724;SDS011;38621;52.830;6.914;2022-09-12T14:55:33;3.72;;;3.08;;
52724;SDS011;38621;52.830;6.914;2022-09-12T15:01:29;3.75;;;3.00;;
52724;SDS011;38621;52.830;6.914;2022-09-12T15:06:23;3.58;;;2.90;;
52724;SDS011;38621;52.830;6.914;2022-09-12T15:08:52;4.05;;;2.78;;
52724;SDS011;38621;52.830;6.914;2022-09-12T15:11:19;3.90;;;2.83;;
52724;SDS011;38621;52.830;6.914;2022-09-12T15:13:45;3.72;;;2.70;;
52724;SDS011;38621;52.830;6.914;2022-09-12T15:16:11;3.78;;;2.70;;
52724;SDS011;38621;52.830;6.914;2022-09-12T15:18:37;3.38;;;2.80;;
52724;SDS011;38621;52.830;6.914;2022-09-12T15:21:03;3.90;;;2.85;;
52724;SDS011;38621;52.830;6.914;2022-09-12T15:23:33;3.60;;;2.55;;
52724;SDS011;38621;52.830;6.914;2022-09-12T15:26:16;3.45;;;2.50;;
52724;SDS011;38621;52.830;6.914;2022-09-12T15:28:44;2.88;;;2.10;;
52724;SDS011;38621;52.830;6.914;2022-09-12T15:31:26;3.35;;;2.30;;
52724;SDS011;38621;52.830;6.914;2022-09-12T15:33:54;3.92;;;2.60;;
52724;SDS011;38621;52.830;6.914;2022-09-12T15:36:21;3.05;;;2.10;;
52724;SDS011;38621;52.830;6.914;2022-09-12T15:38:49;3.30;;;2.35;;
52724;SDS011;38621;52.830;6.914;2022-09-12T15:43:43;2.55;;;1.65;;
52724;SDS011;38621;52.830;6.914;2022-09-12T15:46:10;3.00;;;2.10;;
52724;SDS011;38621;52.830;6.914;2022-09-12T15:48:37;2.50;;;1.83;;
52724;SDS011;38621;52.830;6.914;2022-09-12T15:51:03;2.67;;;1.92;;
52724;SDS011;38621;52.830;6.914;2022-09-12T15:53:30;2.63;;;1.70;;
52724;SDS011;38621;52.830;6.914;2022-09-12T15:55:56;2.75;;;1.90;;
52724;SDS011;38621;52.830;6.914;2022-09-12T15:58:21;2.00;;;1.45;;
52724;SDS011;38621;52.830;6.914;2022-09-12T16:00:47;3.22;;;1.98;;
52724;SDS011;38621;52.830;6.914;2022-09-12T16:03:23;2.60;;;1.90;;
52724;SDS011;38621;52.830;6.914;2022-09-12T16:05:55;2.53;;;1.92;;
52724;SDS011;38621;52.830;6.914;2022-09-12T16:08:25;2.40;;;1.85;;
52724;SDS011;38621;52.830;6.914;2022-09-12T16:10:57;2.90;;;2.00;;
52724;SDS011;38621;52.830;6.914;2022-09-12T16:13:25;2.35;;;1.95;;
52724;SDS011;38621;52.830;6.914;2022-09-12T16:15:54;2.78;;;2.38;;
52724;SDS011;38621;52.830;6.914;2022-09-12T16:18:25;4.00;;;2.40;;
52724;SDS011;38621;52.830;6.914;2022-09-12T16:20:54;2.75;;;2.13;;
52724;SDS011;38621;52.830;6.914;2022-09-12T16:23:21;2.50;;;1.92;;
52724;SDS011;38621;52.830;6.914;2022-09-12T16:26:00;3.95;;;2.22;;
52724;SDS011;38621;52.830;6.914;2022-09-12T16:28:28;2.72;;;2.03;;
52724;SDS011;38621;52.830;6.914;2022-09-12T16:30:57;2.83;;;2.10;;
52724;SDS011;38621;52.830;6.914;2022-09-12T16:33:24;2.63;;;1.90;;
52724;SDS011;38621;52.830;6.914;2022-09-12T16:35:51;4.05;;;2.45;;
52724;SDS011;38621;52.830;6.914;2022-09-12T16:38:19;2.60;;;2.00;;
52724;SDS011;38621;52.830;6.914;2022-09-12T16:40:46;3.85;;;1.92;;
52724;SDS011;38621;52.830;6.914;2022-09-12T16:43:12;2.72;;;1.90;;
52724;SDS011;38621;52.830;6.914;2022-09-12T16:45:41;2.78;;;1.67;;
52724;SDS011;38621;52.830;6.914;2022-09-12T16:48:08;2.58;;;1.80;;
52724;SDS011;38621;52.830;6.914;2022-09-12T16:50:33;3.45;;;1.95;;
52724;SDS011;38621;52.830;6.914;2022-09-12T16:52:59;2.47;;;2.08;;
52724;SDS011;38621;52.830;6.914;2022-09-12T16:55:25;2.92;;;1.98;;
52724;SDS011;38621;52.830;6.914;2022-09-12T16:57:52;3.00;;;1.90;;
52724;SDS011;38621;52.830;6.914;2022-09-12T17:00:18;2.25;;;1.80;;
52724;SDS011;38621;52.830;6.914;2022-09-12T17:02:43;5.75;;;2.17;;
52724;SDS011;38621;52.830;6.914;2022-09-12T17:05:09;2.92;;;1.95;;
52724;SDS011;38621;52.830;6.914;2022-09-12T17:07:35;2.63;;;1.95;;
52724;SDS011;38621;52.830;6.914;2022-09-12T17:10:01;3.17;;;2.35;;
52724;SDS011;38621;52.830;6.914;2022-09-12T17:12:26;3.20;;;2.08;;
52724;SDS011;38621;52.830;6.914;2022-09-12T17:14:52;3.10;;;2.10;;
52724;SDS011;38621;52.830;6.914;2022-09-12T17:17:18;2.28;;;1.73;;
52724;SDS011;38621;52.830;6.914;2022-09-12T17:19:44;2.60;;;2.00;;
52724;SDS011;38621;52.830;6.914;2022-09-12T17:22:09;2.97;;;1.98;;
52724;SDS011;38621;52.830;6.914;2022-09-12T17:24:35;3.20;;;1.85;;
52724;SDS011;38621;52.830;6.914;2022-09-12T17:27:00;2.72;;;2.22;;
52724;SDS011;38621;52.830;6.914;2022-09-12T17:29:26;2.90;;;2.03;;
52724;SDS011;38621;52.830;6.914;2022-09-12T17:31:52;4.05;;;2.38;;
52724;SDS011;38621;52.830;6.914;2022-09-12T17:34:19;3.42;;;2.03;;
52724;SDS011;38621;52.830;6.914;2022-09-12T17:36:44;3.55;;;2.30;;
52724;SDS011;38621;52.830;6.914;2022-09-12T17:39:12;2.97;;;2.35;;
52724;SDS011;38621;52.830;6.914;2022-09-12T17:41:38;3.15;;;2.15;;
52724;SDS011;38621;52.830;6.914;2022-09-12T17:44:05;2.95;;;2.20;;
52724;SDS011;38621;52.830;6.914;2022-09-12T17:46:37;4.30;;;2.40;;
52724;SDS011;38621;52.830;6.914;2022-09-12T17:49:04;2.88;;;2.10;;
52724;SDS011;38621;52.830;6.914;2022-09-12T17:51:32;3.53;;;2.28;;
52724;SDS011;38621;52.830;6.914;2022-09-12T17:54:06;2.78;;;2.17;;
52724;SDS011;38621;52.830;6.914;2022-09-12T17:56:35;4.32;;;2.60;;
52724;SDS011;38621;52.830;6.914;2022-09-12T17:59:01;3.60;;;2.30;;
52724;SDS011;38621;52.830;6.914;2022-09-12T18:01:27;3.17;;;2.20;;